sensor_id;sensor_type;location;lat;lon;timestamp;P1;durP1;ratioP1;P2;durP2;ratioP2
43527;SDS011;52359;42.658;23.320;2022-07-23T00:00:54;24.15;;;6.50;;
43527;SDS011;52359;42.658;23.320;2022-07-23T00:03:20;11.50;;;5.00;;
43527;SDS011;52359;42.658;23.320;2022-07-23T00:05:45;17.83;;;6.20;;
43527;SDS011;52359;42.658;23.320;2022-07-23T00:08:11;19.25;;;5.57;;
43527;SDS011;52359;42.658;23.320;2022-07-23T00:10:37;14.73;;;5.70;;
43527;SDS011;52359;42.658;23.320;2022-07-23T00:13:03;11.40;;;5.45;;
43527;SDS011;52359;42.658;23.320;2022-07-23T00:15:29;14.05;;;5.90;;
43527;SDS011;52359;42.658;23.320;2022-07-23T00:17:54;12.23;;;5.80;;
43527;SDS011;52359;42.658;23.320;2022-07-23T00:20:21;11.93;;;5.68;;
43527;SDS011;52359;42.658;23.320;2022-07-23T00:22:47;10.13;;;6.18;;
43527;SDS011;52359;42.658;23.320;2022-07-23T00:25:14;13.52;;;5.80;;
43527;SDS011;52359;42.658;23.320;2022-07-23T00:27:40;13.30;;;5.72;;
43527;SDS011;52359;42.658;23.320;2022-07-23T00:30:06;15.57;;;5.22;;
43527;SDS011;52359;42.658;23.320;2022-07-23T00:32:36;11.88;;;5.60;;
43527;SDS011;52359;42.658;23.320;2022-07-23T00:35:10;13.65;;;5.57;;
43527;SDS011;52359;42.658;23.320;2022-07-23T00:37:36;9.88;;;6.20;;
43527;SDS011;52359;42.658;23.320;2022-07-23T00:40:01;9.88;;;5.68;;
43527;SDS011;52359;42.658;23.320;2022-07-23T00:42:27;16.13;;;6.47;;
43527;SDS011;52359;42.658;23.320;2022-07-23T00:44:53;11.45;;;6.40;;
43527;SDS011;52359;42.658;23.320;2022-07-23T00:47:19;8.15;;;4.95;;
43527;SDS011;52359;42.658;23.320;2022-07-23T00:49:44;14.23;;;5.60;;
43527;SDS011;52359;42.658;23.320;2022-07-23T00:52:10;13.60;;;5.80;;
43527;SDS011;52359;42.658;23.320;2022-07-23T00:54:36;12.63;;;5.70;;
43527;SDS011;52359;42.658;23.320;2022-07-23T00:57:01;15.15;;;5.63;;
43527;SDS011;52359;42.658;23.320;2022-07-23T00:59:28;13.73;;;6.28;;
43527;SDS011;52359;42.658;23.320;2022-07-23T01:01:53;13.20;;;5.95;;
43527;SDS011;52359;42.658;23.320;2022-07-23T01:04:19;21.55;;;5.88;;
43527;SDS011;52359;42.658;23.320;2022-07-23T01:06:45;14.05;;;5.35;;
43527;SDS011;52359;42.658;23.320;2022-07-23T01:09:11;13.35;;;5.72;;
43527;SDS011;52359;42.658;23.320;2022-07-23T01:11:37;15.60;;;6.10;;
43527;SDS011;52359;42.658;23.320;2022-07-23T01:14:13;12.73;;;5.45;;
43527;SDS011;52359;42.658;23.320;2022-07-23T01:16:41;10.20;;;5.82;;
43527;SDS011;52359;42.658;23.320;2022-07-23T01:19:08;12.20;;;5.63;;
43527;SDS011;52359;42.658;23.320;2022-07-23T01:21:35;15.23;;;5.97;;
43527;SDS011;52359;42.658;23.320;2022-07-23T01:24:05;14.75;;;6.13;;
43527;SDS011;52359;42.658;23.320;2022-07-23T01:26:32;17.10;;;6.57;;
43527;SDS011;52359;42.658;23.320;2022-07-23T01:28:58;13.93;;;5.88;;
43527;SDS011;52359;42.658;23.320;2022-07-23T01:31:24;12.77;;;6.32;;
43527;SDS011;52359;42.658;23.320;2022-07-23T01:33:50;13.60;;;5.88;;
43527;SDS011;52359;42.658;23.320;2022-07-23T01:36:16;13.55;;;6.25;;
43527;SDS011;52359;42.658;23.320;2022-07-23T01:38:41;17.08;;;5.97;;
43527;SDS011;52359;42.658;23.320;2022-07-23T01:41:07;13.20;;;5.47;;
43527;SDS011;52359;42.658;23.320;2022-07-23T01:43:33;8.75;;;5.65;;
43527;SDS011;52359;42.658;23.320;2022-07-23T01:45:58;13.32;;;6.35;;
43527;SDS011;52359;42.658;23.320;2022-07-23T01:48:24;13.00;;;6.72;;
43527;SDS011;52359;42.658;23.320;2022-07-23T01:50:50;16.20;;;6.20;;
43527;SDS011;52359;42.658;23.320;2022-07-23T01:53:16;17.67;;;6.55;;
43527;SDS011;52359;42.658;23.320;2022-07-23T01:55:42;13.52;;;6.15;;
43527;SDS011;52359;42.658;23.320;2022-07-23T01:58:08;12.85;;;5.63;;
43527;SDS011;52359;42.658;23.320;2022-07-23T02:00:34;11.68;;;6.10;;
43527;SDS011;52359;42.658;23.320;2022-07-23T02:03:00;12.55;;;6.18;;
43527;SDS011;52359;42.658;23.320;2022-07-23T02:05:26;17.10;;;7.00;;
43527;SDS011;52359;42.658;23.320;2022-07-23T02:07:53;14.60;;;6.47;;
43527;SDS011;52359;42.658;23.320;2022-07-23T02:10:20;18.52;;;6.38;;
43527;SDS011;52359;42.658;23.320;2022-07-23T02:12:47;17.77;;;6.18;;
43527;SDS011;52359;42.658;23.320;2022-07-23T02:15:13;29.52;;;7.03;;
43527;SDS011;52359;42.658;23.320;2022-07-23T02:17:39;20.55;;;7.00;;
43527;SDS011;52359;42.658;23.320;2022-07-23T02:20:06;12.25;;;6.45;;
43527;SDS011;52359;42.658;23.320;2022-07-23T02:22:33;17.25;;;5.90;;
43527;SDS011;52359;42.658;23.320;2022-07-23T02:24:59;20.73;;;6.60;;
43527;SDS011;52359;42.658;23.320;2022-07-23T02:27:25;16.00;;;6.43;;
43527;SDS011;52359;42.658;23.320;2022-07-23T02:29:51;11.60;;;6.57;;
43527;SDS011;52359;42.658;23.320;2022-07-23T02:32:17;11.55;;;6.07;;
43527;SDS011;52359;42.658;23.320;2022-07-23T02:34:43;12.98;;;6.45;;
43527;SDS011;52359;42.658;23.320;2022-07-23T02:37:09;20.10;;;7.05;;
43527;SDS011;52359;42.658;23.320;2022-07-23T02:39:35;15.55;;;6.53;;
43527;SDS011;52359;42.658;23.320;2022-07-23T02:42:01;16.40;;;6.25;;
43527;SDS011;52359;42.658;23.320;2022-07-23T02:44:27;13.68;;;6.20;;
43527;SDS011;52359;42.658;23.320;2022-07-23T02:46:53;12.93;;;6.95;;
43527;SDS011;52359;42.658;23.320;2022-07-23T02:49:19;18.88;;;6.93;;
43527;SDS011;52359;42.658;23.320;2022-07-23T02:51:46;9.27;;;5.90;;
43527;SDS011;52359;42.658;23.320;2022-07-23T02:54:12;9.90;;;6.38;;
43527;SDS011;52359;42.658;23.320;2022-07-23T02:56:38;14.25;;;5.88;;
43527;SDS011;52359;42.658;23.320;2022-07-23T02:59:04;16.52;;;7.93;;
43527;SDS011;52359;42.658;23.320;2022-07-23T03:01:30;11.38;;;6.50;;
43527;SDS011;52359;42.658;23.320;2022-07-23T03:03:56;18.88;;;6.78;;
43527;SDS011;52359;42.658;23.320;2022-07-23T03:06:22;11.45;;;6.07;;
43527;SDS011;52359;42.658;23.320;2022-07-23T03:08:48;9.15;;;6.20;;
43527;SDS011;52359;42.658;23.320;2022-07-23T03:11:14;10.88;;;6.38;;
43527;SDS011;52359;42.658;23.320;2022-07-23T03:13:40;12.02;;;6.30;;
43527;SDS011;52359;42.658;23.320;2022-07-23T03:16:06;16.60;;;7.07;;
43527;SDS011;52359;42.658;23.320;2022-07-23T03:18:33;17.23;;;7.45;;
43527;SDS011;52359;42.658;23.320;2022-07-23T03:20:59;13.55;;;7.07;;
43527;SDS011;52359;42.658;23.320;2022-07-23T03:23:25;24.38;;;7.45;;
43527;SDS011;52359;42.658;23.320;2022-07-23T03:25:51;13.70;;;6.30;;
43527;SDS011;52359;42.658;23.320;2022-07-23T03:28:17;11.38;;;6.28;;
43527;SDS011;52359;42.658;23.320;2022-07-23T03:30:45;11.27;;;6.38;;
43527;SDS011;52359;42.658;23.320;2022-07-23T03:33:15;25.77;;;7.70;;
43527;SDS011;52359;42.658;23.320;2022-07-23T03:35:41;17.25;;;7.00;;
43527;SDS011;52359;42.658;23.320;2022-07-23T03:38:08;18.83;;;6.97;;
43527;SDS011;52359;42.658;23.320;2022-07-23T03:40:34;22.67;;;7.57;;
43527;SDS011;52359;42.658;23.320;2022-07-23T03:43:00;14.52;;;7.10;;
43527;SDS011;52359;42.658;23.320;2022-07-23T03:45:26;19.20;;;6.90;;
43527;SDS011;52359;42.658;23.320;2022-07-23T03:47:52;11.25;;;5.93;;
43527;SDS011;52359;42.658;23.320;2022-07-23T03:50:18;10.15;;;6.43;;
43527;SDS011;52359;42.658;23.320;2022-07-23T03:52:44;13.93;;;6.53;;
43527;SDS011;52359;42.658;23.320;2022-07-23T03:55:10;27.27;;;6.75;;
43527;SDS011;52359;42.658;23.320;2022-07-23T03:57:36;15.32;;;6.47;;
43527;SDS011;52359;42.658;23.320;2022-07-23T04:00:03;14.52;;;6.97;;
43527;SDS011;52359;42.658;23.320;2022-07-23T04:02:30;12.32;;;6.00;;
43527;SDS011;52359;42.658;23.320;2022-07-23T04:04:56;11.95;;;6.50;;
43527;SDS011;52359;42.658;23.320;2022-07-23T04:07:23;21.90;;;7.40;;
43527;SDS011;52359;42.658;23.320;2022-07-23T04:09:49;17.02;;;6.78;;
43527;SDS011;52359;42.658;23.320;2022-07-23T04:12:15;14.30;;;7.28;;
43527;SDS011;52359;42.658;23.320;2022-07-23T04:14:41;11.40;;;7.15;;
43527;SDS011;52359;42.658;23.320;2022-07-23T04:17:07;15.73;;;6.90;;
43527;SDS011;52359;42.658;23.320;2022-07-23T04:19:33;13.98;;;7.22;;
43527;SDS011;52359;42.658;23.320;2022-07-23T04:22:04;20.17;;;7.10;;
43527;SDS011;52359;42.658;23.320;2022-07-23T04:24:30;19.08;;;7.10;;
43527;SDS011;52359;42.658;23.320;2022-07-23T04:26:56;17.85;;;7.10;;
43527;SDS011;52359;42.658;23.320;2022-07-23T04:29:22;16.98;;;7.28;;
43527;SDS011;52359;42.658;23.320;2022-07-23T04:31:48;18.98;;;7.20;;
43527;SDS011;52359;42.658;23.320;2022-07-23T04:34:14;13.05;;;6.45;;
43527;SDS011;52359;42.658;23.320;2022-07-23T04:36:40;17.33;;;7.18;;
43527;SDS011;52359;42.658;23.320;2022-07-23T04:39:06;16.15;;;8.00;;
43527;SDS011;52359;42.658;23.320;2022-07-23T04:41:32;21.38;;;7.75;;
43527;SDS011;52359;42.658;23.320;2022-07-23T04:43:58;18.95;;;7.75;;
43527;SDS011;52359;42.658;23.320;2022-07-23T04:46:24;14.23;;;7.50;;
43527;SDS011;52359;42.658;23.320;2022-07-23T04:48:49;18.02;;;8.20;;
43527;SDS011;52359;42.658;23.320;2022-07-23T04:51:15;13.63;;;8.60;;
43527;SDS011;52359;42.658;23.320;2022-07-23T04:53:41;11.18;;;8.00;;
43527;SDS011;52359;42.658;23.320;2022-07-23T04:56:07;15.07;;;8.68;;
43527;SDS011;52359;42.658;23.320;2022-07-23T04:58:33;17.52;;;8.77;;
43527;SDS011;52359;42.658;23.320;2022-07-23T05:00:58;18.60;;;8.65;;
43527;SDS011;52359;42.658;23.320;2022-07-23T05:03:24;14.07;;;8.23;;
43527;SDS011;52359;42.658;23.320;2022-07-23T05:05:50;27.77;;;7.78;;
43527;SDS011;52359;42.658;23.320;2022-07-23T05:08:16;25.50;;;8.70;;
43527;SDS011;52359;42.658;23.320;2022-07-23T05:10:42;12.18;;;7.40;;
43527;SDS011;52359;42.658;23.320;2022-07-23T05:13:07;11.68;;;7.90;;
43527;SDS011;52359;42.658;23.320;2022-07-23T05:15:33;9.93;;;7.05;;
43527;SDS011;52359;42.658;23.320;2022-07-23T05:17:59;23.90;;;8.68;;
43527;SDS011;52359;42.658;23.320;2022-07-23T05:20:25;15.00;;;8.10;;
43527;SDS011;52359;42.658;23.320;2022-07-23T05:22:51;17.10;;;8.10;;
43527;SDS011;52359;42.658;23.320;2022-07-23T05:25:17;14.60;;;8.25;;
43527;SDS011;52359;42.658;23.320;2022-07-23T05:27:43;13.25;;;8.77;;
43527;SDS011;52359;42.658;23.320;2022-07-23T05:30:09;18.20;;;8.95;;
43527;SDS011;52359;42.658;23.320;2022-07-23T05:32:35;11.68;;;8.10;;
43527;SDS011;52359;42.658;23.320;2022-07-23T05:35:02;14.93;;;8.82;;
43527;SDS011;52359;42.658;23.320;2022-07-23T05:37:29;16.63;;;9.80;;
43527;SDS011;52359;42.658;23.320;2022-07-23T05:39:55;17.85;;;9.48;;
43527;SDS011;52359;42.658;23.320;2022-07-23T05:42:21;13.80;;;8.02;;
43527;SDS011;52359;42.658;23.320;2022-07-23T05:44:46;19.95;;;8.93;;
43527;SDS011;52359;42.658;23.320;2022-07-23T05:47:12;21.17;;;8.80;;
43527;SDS011;52359;42.658;23.320;2022-07-23T05:49:38;17.33;;;8.35;;
43527;SDS011;52359;42.658;23.320;2022-07-23T05:52:04;25.80;;;9.10;;
43527;SDS011;52359;42.658;23.320;2022-07-23T05:54:30;27.25;;;8.82;;
43527;SDS011;52359;42.658;23.320;2022-07-23T05:56:57;26.60;;;9.88;;
43527;SDS011;52359;42.658;23.320;2022-07-23T05:59:23;17.10;;;9.13;;
43527;SDS011;52359;42.658;23.320;2022-07-23T06:01:49;24.92;;;8.35;;
43527;SDS011;52359;42.658;23.320;2022-07-23T06:04:14;24.38;;;8.57;;
43527;SDS011;52359;42.658;23.320;2022-07-23T06:06:40;20.15;;;8.45;;
43527;SDS011;52359;42.658;23.320;2022-07-23T06:09:06;26.73;;;8.77;;
43527;SDS011;52359;42.658;23.320;2022-07-23T06:11:31;17.35;;;9.25;;
43527;SDS011;52359;42.658;23.320;2022-07-23T06:13:57;24.23;;;9.40;;
43527;SDS011;52359;42.658;23.320;2022-07-23T06:16:23;18.60;;;9.10;;
43527;SDS011;52359;42.658;23.320;2022-07-23T06:18:49;22.48;;;8.20;;
43527;SDS011;52359;42.658;23.320;2022-07-23T06:21:15;16.27;;;8.02;;
43527;SDS011;52359;42.658;23.320;2022-07-23T06:23:41;16.58;;;8.52;;
43527;SDS011;52359;42.658;23.320;2022-07-23T06:26:07;15.63;;;8.63;;
43527;SDS011;52359;42.658;23.320;2022-07-23T06:28:33;16.73;;;8.25;;
43527;SDS011;52359;42.658;23.320;2022-07-23T06:30:59;23.13;;;8.52;;
43527;SDS011;52359;42.658;23.320;2022-07-23T06:33:25;28.67;;;8.07;;
43527;SDS011;52359;42.658;23.320;2022-07-23T06:35:51;18.13;;;8.80;;
43527;SDS011;52359;42.658;23.320;2022-07-23T06:38:17;14.25;;;8.20;;
43527;SDS011;52359;42.658;23.320;2022-07-23T06:40:43;15.80;;;8.00;;
43527;SDS011;52359;42.658;23.320;2022-07-23T06:43:10;18.17;;;8.02;;
43527;SDS011;52359;42.658;23.320;2022-07-23T06:45:36;15.45;;;7.35;;
43527;SDS011;52359;42.658;23.320;2022-07-23T06:48:02;16.70;;;8.25;;
43527;SDS011;52359;42.658;23.320;2022-07-23T06:50:29;12.23;;;7.72;;
43527;SDS011;52359;42.658;23.320;2022-07-23T06:52:55;22.33;;;9.13;;
43527;SDS011;52359;42.658;23.320;2022-07-23T06:55:21;15.68;;;7.80;;
43527;SDS011;52359;42.658;23.320;2022-07-23T06:57:47;15.18;;;8.93;;
43527;SDS011;52359;42.658;23.320;2022-07-23T07:00:13;14.70;;;7.47;;
43527;SDS011;52359;42.658;23.320;2022-07-23T07:02:39;15.75;;;7.85;;
43527;SDS011;52359;42.658;23.320;2022-07-23T07:05:05;11.50;;;7.43;;
43527;SDS011;52359;42.658;23.320;2022-07-23T07:07:31;18.85;;;7.13;;
43527;SDS011;52359;42.658;23.320;2022-07-23T07:09:57;13.80;;;8.38;;
43527;SDS011;52359;42.658;23.320;2022-07-23T07:12:23;13.35;;;7.25;;
43527;SDS011;52359;42.658;23.320;2022-07-23T07:14:49;18.63;;;8.05;;
43527;SDS011;52359;42.658;23.320;2022-07-23T07:17:15;13.57;;;7.53;;
43527;SDS011;52359;42.658;23.320;2022-07-23T07:19:42;12.20;;;6.75;;
43527;SDS011;52359;42.658;23.320;2022-07-23T07:22:08;18.38;;;7.50;;
43527;SDS011;52359;42.658;23.320;2022-07-23T07:24:34;18.77;;;7.57;;
43527;SDS011;52359;42.658;23.320;2022-07-23T07:27:00;13.38;;;7.30;;
43527;SDS011;52359;42.658;23.320;2022-07-23T07:29:26;15.70;;;7.18;;
43527;SDS011;52359;42.658;23.320;2022-07-23T07:31:53;14.77;;;8.23;;
43527;SDS011;52359;42.658;23.320;2022-07-23T07:34:19;17.58;;;8.05;;
43527;SDS011;52359;42.658;23.320;2022-07-23T07:36:45;17.08;;;7.50;;
43527;SDS011;52359;42.658;23.320;2022-07-23T07:39:11;10.02;;;7.07;;
43527;SDS011;52359;42.658;23.320;2022-07-23T07:41:37;19.55;;;8.18;;
43527;SDS011;52359;42.658;23.320;2022-07-23T07:44:03;11.98;;;7.28;;
43527;SDS011;52359;42.658;23.320;2022-07-23T07:46:29;16.35;;;6.65;;
43527;SDS011;52359;42.658;23.320;2022-07-23T07:48:55;21.42;;;8.68;;
43527;SDS011;52359;42.658;23.320;2022-07-23T07:51:21;10.20;;;7.20;;
43527;SDS011;52359;42.658;23.320;2022-07-23T07:53:47;9.02;;;6.90;;
43527;SDS011;52359;42.658;23.320;2022-07-23T07:56:13;17.23;;;6.85;;
43527;SDS011;52359;42.658;23.320;2022-07-23T07:58:39;19.85;;;8.18;;
43527;SDS011;52359;42.658;23.320;2022-07-23T08:01:05;17.77;;;7.32;;
43527;SDS011;52359;42.658;23.320;2022-07-23T08:03:32;15.05;;;7.38;;
43527;SDS011;52359;42.658;23.320;2022-07-23T08:05:58;12.65;;;7.18;;
43527;SDS011;52359;42.658;23.320;2022-07-23T08:08:24;15.45;;;7.13;;
43527;SDS011;52359;42.658;23.320;2022-07-23T08:10:49;22.25;;;7.18;;
43527;SDS011;52359;42.658;23.320;2022-07-23T08:13:15;19.35;;;7.28;;
43527;SDS011;52359;42.658;23.320;2022-07-23T08:15:42;11.70;;;7.53;;
43527;SDS011;52359;42.658;23.320;2022-07-23T08:18:08;15.82;;;7.00;;
43527;SDS011;52359;42.658;23.320;2022-07-23T08:20:35;20.58;;;7.22;;
43527;SDS011;52359;42.658;23.320;2022-07-23T08:23:05;18.30;;;7.53;;
43527;SDS011;52359;42.658;23.320;2022-07-23T08:25:32;17.85;;;7.00;;
43527;SDS011;52359;42.658;23.320;2022-07-23T08:27:59;11.60;;;6.47;;
43527;SDS011;52359;42.658;23.320;2022-07-23T08:30:26;17.15;;;7.25;;
43527;SDS011;52359;42.658;23.320;2022-07-23T08:35:25;15.73;;;7.28;;
43527;SDS011;52359;42.658;23.320;2022-07-23T08:37:51;17.05;;;7.10;;
43527;SDS011;52359;42.658;23.320;2022-07-23T08:40:16;15.68;;;6.47;;
43527;SDS011;52359;42.658;23.320;2022-07-23T08:42:43;20.45;;;7.05;;
43527;SDS011;52359;42.658;23.320;2022-07-23T08:45:12;15.77;;;6.75;;
43527;SDS011;52359;42.658;23.320;2022-07-23T08:47:40;17.25;;;6.88;;
43527;SDS011;52359;42.658;23.320;2022-07-23T08:50:06;21.00;;;7.53;;
43527;SDS011;52359;42.658;23.320;2022-07-23T08:52:33;17.88;;;7.20;;
43527;SDS011;52359;42.658;23.320;2022-07-23T08:55:01;16.73;;;7.30;;
43527;SDS011;52359;42.658;23.320;2022-07-23T08:57:27;18.65;;;7.90;;
43527;SDS011;52359;42.658;23.320;2022-07-23T08:59:52;21.25;;;7.55;;
43527;SDS011;52359;42.658;23.320;2022-07-23T09:02:18;10.23;;;7.30;;
43527;SDS011;52359;42.658;23.320;2022-07-23T09:04:43;15.45;;;6.65;;
43527;SDS011;52359;42.658;23.320;2022-07-23T09:07:09;18.17;;;6.68;;
43527;SDS011;52359;42.658;23.320;2022-07-23T09:09:35;14.15;;;6.65;;
43527;SDS011;52359;42.658;23.320;2022-07-23T09:14:40;16.63;;;6.13;;
43527;SDS011;52359;42.658;23.320;2022-07-23T09:17:13;13.15;;;6.47;;
43527;SDS011;52359;42.658;23.320;2022-07-23T09:19:40;10.88;;;6.03;;
43527;SDS011;52359;42.658;23.320;2022-07-23T09:22:22;13.02;;;6.18;;
43527;SDS011;52359;42.658;23.320;2022-07-23T09:30:14;7.40;;;6.20;;
43527;SDS011;52359;42.658;23.320;2022-07-23T09:32:40;9.85;;;6.32;;
43527;SDS011;52359;42.658;23.320;2022-07-23T09:35:07;30.33;;;6.88;;
43527;SDS011;52359;42.658;23.320;2022-07-23T09:37:33;10.95;;;6.32;;
43527;SDS011;52359;42.658;23.320;2022-07-23T09:40:03;16.42;;;6.35;;
43527;SDS011;52359;42.658;23.320;2022-07-23T09:42:29;16.52;;;6.75;;
43527;SDS011;52359;42.658;23.320;2022-07-23T09:44:56;13.40;;;5.85;;
43527;SDS011;52359;42.658;23.320;2022-07-23T09:47:23;17.20;;;5.70;;
43527;SDS011;52359;42.658;23.320;2022-07-23T09:50:06;10.65;;;5.90;;
43527;SDS011;52359;42.658;23.320;2022-07-23T09:52:44;15.40;;;5.55;;
43527;SDS011;52359;42.658;23.320;2022-07-23T09:55:12;19.48;;;6.25;;
43527;SDS011;52359;42.658;23.320;2022-07-23T09:57:40;14.85;;;6.50;;
43527;SDS011;52359;42.658;23.320;2022-07-23T10:00:07;12.93;;;4.88;;
43527;SDS011;52359;42.658;23.320;2022-07-23T10:02:34;11.80;;;5.68;;
43527;SDS011;52359;42.658;23.320;2022-07-23T10:05:01;15.88;;;6.50;;
43527;SDS011;52359;42.658;23.320;2022-07-23T10:07:27;13.05;;;5.15;;
43527;SDS011;52359;42.658;23.320;2022-07-23T10:09:58;20.48;;;6.00;;
43527;SDS011;52359;42.658;23.320;2022-07-23T10:12:25;11.13;;;5.75;;
43527;SDS011;52359;42.658;23.320;2022-07-23T10:14:56;11.85;;;5.95;;
43527;SDS011;52359;42.658;23.320;2022-07-23T10:17:22;14.50;;;5.53;;
43527;SDS011;52359;42.658;23.320;2022-07-23T10:19:49;8.98;;;5.60;;
43527;SDS011;52359;42.658;23.320;2022-07-23T10:33:15;10.85;;;5.07;;
43527;SDS011;52359;42.658;23.320;2022-07-23T10:35:46;12.05;;;5.07;;
43527;SDS011;52359;42.658;23.320;2022-07-23T10:43:24;20.38;;;5.28;;
43527;SDS011;52359;42.658;23.320;2022-07-23T10:45:51;14.18;;;4.65;;
43527;SDS011;52359;42.658;23.320;2022-07-23T10:48:18;12.45;;;4.60;;
43527;SDS011;52359;42.658;23.320;2022-07-23T10:53:47;16.20;;;5.38;;
43527;SDS011;52359;42.658;23.320;2022-07-23T10:56:16;17.45;;;4.45;;
43527;SDS011;52359;42.658;23.320;2022-07-23T10:58:46;19.95;;;4.88;;
43527;SDS011;52359;42.658;23.320;2022-07-23T11:01:31;17.02;;;4.85;;
43527;SDS011;52359;42.658;23.320;2022-07-23T11:03:58;20.48;;;4.78;;
43527;SDS011;52359;42.658;23.320;2022-07-23T11:06:29;11.10;;;4.38;;
43527;SDS011;52359;42.658;23.320;2022-07-23T11:09:23;12.57;;;5.20;;
43527;SDS011;52359;42.658;23.320;2022-07-23T11:11:49;17.33;;;5.10;;
43527;SDS011;52359;42.658;23.320;2022-07-23T11:14:15;16.08;;;5.45;;
43527;SDS011;52359;42.658;23.320;2022-07-23T11:17:01;20.40;;;5.40;;
43527;SDS011;52359;42.658;23.320;2022-07-23T11:19:27;20.08;;;5.25;;
43527;SDS011;52359;42.658;23.320;2022-07-23T11:21:53;11.77;;;4.57;;
43527;SDS011;52359;42.658;23.320;2022-07-23T11:24:22;17.40;;;6.00;;
43527;SDS011;52359;42.658;23.320;2022-07-23T11:26:58;11.50;;;4.65;;
43527;SDS011;52359;42.658;23.320;2022-07-23T11:31:54;14.65;;;5.28;;
43527;SDS011;52359;42.658;23.320;2022-07-23T11:36:59;17.38;;;4.82;;
43527;SDS011;52359;42.658;23.320;2022-07-23T11:39:26;30.55;;;5.38;;
43527;SDS011;52359;42.658;23.320;2022-07-23T11:41:52;18.80;;;5.72;;
43527;SDS011;52359;42.658;23.320;2022-07-23T11:44:28;16.58;;;4.68;;
43527;SDS011;52359;42.658;23.320;2022-07-23T11:46:59;13.93;;;5.13;;
43527;SDS011;52359;42.658;23.320;2022-07-23T11:49:25;17.13;;;5.05;;
43527;SDS011;52359;42.658;23.320;2022-07-23T11:52:08;12.90;;;4.47;;
43527;SDS011;52359;42.658;23.320;2022-07-23T11:54:35;18.20;;;4.22;;
43527;SDS011;52359;42.658;23.320;2022-07-23T11:57:01;14.30;;;5.68;;
43527;SDS011;52359;42.658;23.320;2022-07-23T11:59:29;14.63;;;4.85;;
43527;SDS011;52359;42.658;23.320;2022-07-23T12:04:24;14.65;;;4.57;;
43527;SDS011;52359;42.658;23.320;2022-07-23T12:07:01;19.08;;;4.65;;
43527;SDS011;52359;42.658;23.320;2022-07-23T12:09:27;17.08;;;4.60;;
43527;SDS011;52359;42.658;23.320;2022-07-23T12:11:57;23.90;;;5.68;;
43527;SDS011;52359;42.658;23.320;2022-07-23T12:14:23;17.38;;;5.25;;
43527;SDS011;52359;42.658;23.320;2022-07-23T12:17:06;20.70;;;5.43;;
43527;SDS011;52359;42.658;23.320;2022-07-23T12:19:32;19.80;;;4.70;;
43527;SDS011;52359;42.658;23.320;2022-07-23T12:21:58;36.63;;;5.97;;
43527;SDS011;52359;42.658;23.320;2022-07-23T12:24:24;18.00;;;4.80;;
43527;SDS011;52359;42.658;23.320;2022-07-23T12:29:36;19.77;;;5.20;;
43527;SDS011;52359;42.658;23.320;2022-07-23T12:32:02;16.10;;;5.20;;
43527;SDS011;52359;42.658;23.320;2022-07-23T12:34:40;29.92;;;6.22;;
43527;SDS011;52359;42.658;23.320;2022-07-23T12:37:07;21.92;;;5.43;;
43527;SDS011;52359;42.658;23.320;2022-07-23T12:39:33;22.75;;;4.90;;
43527;SDS011;52359;42.658;23.320;2022-07-23T12:41:59;19.52;;;4.78;;
43527;SDS011;52359;42.658;23.320;2022-07-23T12:44:24;13.25;;;4.28;;
43527;SDS011;52359;42.658;23.320;2022-07-23T12:46:51;13.02;;;5.15;;
43527;SDS011;52359;42.658;23.320;2022-07-23T12:49:27;14.80;;;4.45;;
43527;SDS011;52359;42.658;23.320;2022-07-23T12:51:53;9.45;;;3.80;;
43527;SDS011;52359;42.658;23.320;2022-07-23T12:54:19;15.82;;;4.70;;
43527;SDS011;52359;42.658;23.320;2022-07-23T12:56:53;13.35;;;4.97;;
43527;SDS011;52359;42.658;23.320;2022-07-23T12:59:18;18.13;;;4.70;;
43527;SDS011;52359;42.658;23.320;2022-07-23T13:01:46;11.20;;;4.80;;
43527;SDS011;52359;42.658;23.320;2022-07-23T13:04:24;15.95;;;4.60;;
43527;SDS011;52359;42.658;23.320;2022-07-23T13:06:51;19.15;;;4.63;;
43527;SDS011;52359;42.658;23.320;2022-07-23T13:09:20;15.85;;;4.80;;
43527;SDS011;52359;42.658;23.320;2022-07-23T13:11:48;26.17;;;5.05;;
43527;SDS011;52359;42.658;23.320;2022-07-23T13:14:15;14.55;;;4.97;;
43527;SDS011;52359;42.658;23.320;2022-07-23T13:16:43;16.42;;;4.70;;
43527;SDS011;52359;42.658;23.320;2022-07-23T13:19:09;12.50;;;4.35;;
43527;SDS011;52359;42.658;23.320;2022-07-23T13:21:36;22.75;;;5.28;;
43527;SDS011;52359;42.658;23.320;2022-07-23T13:24:02;26.23;;;4.82;;
43527;SDS011;52359;42.658;23.320;2022-07-23T13:26:27;15.77;;;4.35;;
43527;SDS011;52359;42.658;23.320;2022-07-23T13:28:53;22.15;;;4.70;;
43527;SDS011;52359;42.658;23.320;2022-07-23T13:31:20;21.80;;;5.05;;
43527;SDS011;52359;42.658;23.320;2022-07-23T13:33:46;15.25;;;4.25;;
43527;SDS011;52359;42.658;23.320;2022-07-23T13:36:12;15.65;;;5.85;;
43527;SDS011;52359;42.658;23.320;2022-07-23T13:38:38;20.70;;;5.07;;
43527;SDS011;52359;42.658;23.320;2022-07-23T13:41:04;26.30;;;5.05;;
43527;SDS011;52359;42.658;23.320;2022-07-23T13:43:29;16.30;;;4.28;;
43527;SDS011;52359;42.658;23.320;2022-07-23T13:45:55;21.13;;;4.88;;
43527;SDS011;52359;42.658;23.320;2022-07-23T13:48:21;18.05;;;4.60;;
43527;SDS011;52359;42.658;23.320;2022-07-23T13:50:48;15.48;;;5.03;;
43527;SDS011;52359;42.658;23.320;2022-07-23T13:53:15;15.65;;;4.65;;
43527;SDS011;52359;42.658;23.320;2022-07-23T13:55:43;15.02;;;4.45;;
43527;SDS011;52359;42.658;23.320;2022-07-23T13:58:10;16.80;;;5.45;;
43527;SDS011;52359;42.658;23.320;2022-07-23T14:00:37;14.75;;;4.32;;
43527;SDS011;52359;42.658;23.320;2022-07-23T14:03:05;15.77;;;5.10;;
43527;SDS011;52359;42.658;23.320;2022-07-23T14:05:31;17.00;;;4.18;;
43527;SDS011;52359;42.658;23.320;2022-07-23T14:07:57;16.30;;;4.13;;
43527;SDS011;52359;42.658;23.320;2022-07-23T14:10:23;14.20;;;4.15;;
43527;SDS011;52359;42.658;23.320;2022-07-23T14:12:50;22.92;;;4.75;;
43527;SDS011;52359;42.658;23.320;2022-07-23T14:15:17;17.60;;;4.45;;
43527;SDS011;52359;42.658;23.320;2022-07-23T14:17:44;16.27;;;4.88;;
43527;SDS011;52359;42.658;23.320;2022-07-23T14:20:11;14.05;;;4.47;;
43527;SDS011;52359;42.658;23.320;2022-07-23T14:22:37;19.58;;;5.30;;
43527;SDS011;52359;42.658;23.320;2022-07-23T14:25:03;16.17;;;4.32;;
43527;SDS011;52359;42.658;23.320;2022-07-23T14:27:30;24.35;;;4.05;;
43527;SDS011;52359;42.658;23.320;2022-07-23T14:29:56;13.93;;;4.45;;
43527;SDS011;52359;42.658;23.320;2022-07-23T14:32:22;19.25;;;5.10;;
43527;SDS011;52359;42.658;23.320;2022-07-23T14:34:48;17.70;;;4.80;;
43527;SDS011;52359;42.658;23.320;2022-07-23T14:37:14;24.48;;;5.72;;
43527;SDS011;52359;42.658;23.320;2022-07-23T14:39:41;15.65;;;4.72;;
43527;SDS011;52359;42.658;23.320;2022-07-23T14:42:07;19.27;;;5.28;;
43527;SDS011;52359;42.658;23.320;2022-07-23T14:44:34;16.42;;;5.60;;
43527;SDS011;52359;42.658;23.320;2022-07-23T14:47:00;12.52;;;4.72;;
43527;SDS011;52359;42.658;23.320;2022-07-23T14:49:28;19.13;;;5.70;;
43527;SDS011;52359;42.658;23.320;2022-07-23T14:51:53;16.13;;;4.80;;
43527;SDS011;52359;42.658;23.320;2022-07-23T14:54:19;14.48;;;4.78;;
43527;SDS011;52359;42.658;23.320;2022-07-23T14:56:46;19.38;;;4.85;;
43527;SDS011;52359;42.658;23.320;2022-07-23T14:59:12;18.33;;;4.40;;